sensor_id;sensor_type;location;lat;lon;timestamp;temperature;humidity
43043;DHT22;28667;50.758;6.096;2022-08-19T00:00:57;16.90;99.90
43043;DHT22;28667;50.758;6.096;2022-08-19T00:03:34;16.90;99.90
43043;DHT22;28667;50.758;6.096;2022-08-19T00:06:11;16.90;99.90
43043;DHT22;28667;50.758;6.096;2022-08-19T00:09:07;16.90;99.90
43043;DHT22;28667;50.758;6.096;2022-08-19T00:11:32;16.80;99.90
43043;DHT22;28667;50.758;6.096;2022-08-19T00:14:04;16.80;99.90
43043;DHT22;28667;50.758;6.096;2022-08-19T00:16:48;16.70;99.90
43043;DHT22;28667;50.758;6.096;2022-08-19T00:19:25;16.70;99.90
43043;DHT22;28667;50.758;6.096;2022-08-19T00:22:25;16.70;99.90
43043;DHT22;28667;50.758;6.096;2022-08-19T00:25:12;16.60;99.90
43043;DHT22;28667;50.758;6.096;2022-08-19T00:27:54;16.60;99.90
43043;DHT22;28667;50.758;6.096;2022-08-19T00:30:36;16.60;99.90
43043;DHT22;28667;50.758;6.096;2022-08-19T00:33:09;16.60;99.90
43043;DHT22;28667;50.758;6.096;2022-08-19T00:35:44;16.50;99.90
43043;DHT22;28667;50.758;6.096;2022-08-19T00:38:18;16.50;99.90
43043;DHT22;28667;50.758;6.096;2022-08-19T00:40:50;16.50;99.90
43043;DHT22;28667;50.758;6.096;2022-08-19T00:43:24;16.50;99.90
43043;DHT22;28667;50.758;6.096;2022-08-19T00:45:55;16.40;99.90
43043;DHT22;28667;50.758;6.096;2022-08-19T00:48:46;16.40;99.90
43043;DHT22;28667;50.758;6.096;2022-08-19T00:51:13;16.40;99.90
43043;DHT22;28667;50.758;6.096;2022-08-19T00:53:48;16.40;99.90
43043;DHT22;28667;50.758;6.096;2022-08-19T00:56:28;16.40;99.90
43043;DHT22;28667;50.758;6.096;2022-08-19T00:58:59;16.40;99.90
43043;DHT22;28667;50.758;6.096;2022-08-19T01:01:42;16.30;99.90
43043;DHT22;28667;50.758;6.096;2022-08-19T01:04:22;16.30;99.90
43043;DHT22;28667;50.758;6.096;2022-08-19T01:06:51;16.30;99.90
43043;DHT22;28667;50.758;6.096;2022-08-19T01:09:40;16.30;99.90
43043;DHT22;28667;50.758;6.096;2022-08-19T01:12:23;16.30;99.90
43043;DHT22;28667;50.758;6.096;2022-08-19T01:14:56;16.30;99.90
43043;DHT22;28667;50.758;6.096;2022-08-19T01:17:38;16.20;99.90
43043;DHT22;28667;50.758;6.096;2022-08-19T01:20:27;16.20;99.90
43043;DHT22;28667;50.758;6.096;2022-08-19T01:23:02;16.20;99.90
43043;DHT22;28667;50.758;6.096;2022-08-19T01:25:59;16.20;99.90
43043;DHT22;28667;50.758;6.096;2022-08-19T01:28:36;16.10;99.90
43043;DHT22;28667;50.758;6.096;2022-08-19T01:31:16;16.10;99.90
43043;DHT22;28667;50.758;6.096;2022-08-19T01:34:10;16.10;99.90
43043;DHT22;28667;50.758;6.096;2022-08-19T01:36:46;16.10;99.90
43043;DHT22;28667;50.758;6.096;2022-08-19T01:39:44;16.10;99.90
43043;DHT22;28667;50.758;6.096;2022-08-19T01:42:26;16.00;99.90
43043;DHT22;28667;50.758;6.096;2022-08-19T01:45:06;16.10;99.90
43043;DHT22;28667;50.758;6.096;2022-08-19T01:47:40;16.00;99.90
43043;DHT22;28667;50.758;6.096;2022-08-19T01:50:24;16.00;99.90
43043;DHT22;28667;50.758;6.096;2022-08-19T01:53:19;16.00;99.90
43043;DHT22;28667;50.758;6.096;2022-08-19T01:55:54;16.00;99.90
43043;DHT22;28667;50.758;6.096;2022-08-19T02:01:39;16.00;99.90
43043;DHT22;28667;50.758;6.096;2022-08-19T02:04:13;15.90;99.90
43043;DHT22;28667;50.758;6.096;2022-08-19T02:07:06;15.90;99.90
43043;DHT22;28667;50.758;6.096;2022-08-19T02:09:48;15.90;99.90
43043;DHT22;28667;50.758;6.096;2022-08-19T02:12:47;15.90;99.90
43043;DHT22;28667;50.758;6.096;2022-08-19T02:15:32;15.80;99.90
43043;DHT22;28667;50.758;6.096;2022-08-19T02:18:09;15.80;99.90
43043;DHT22;28667;50.758;6.096;2022-08-19T02:21:00;15.80;99.90
43043;DHT22;28667;50.758;6.096;2022-08-19T02:23:29;15.80;99.90
43043;DHT22;28667;50.758;6.096;2022-08-19T02:26:03;15.80;99.90
43043;DHT22;28667;50.758;6.096;2022-08-19T02:28:35;15.80;99.90
43043;DHT22;28667;50.758;6.096;2022-08-19T02:31:24;15.80;99.90
43043;DHT22;28667;50.758;6.096;2022-08-19T02:34:18;15.80;99.90
43043;DHT22;28667;50.758;6.096;2022-08-19T02:36:57;15.80;99.90
43043;DHT22;28667;50.758;6.096;2022-08-19T02:39:38;15.70;99.90
43043;DHT22;28667;50.758;6.096;2022-08-19T02:42:23;15.70;99.90
43043;DHT22;28667;50.758;6.096;2022-08-19T02:45:07;15.70;99.90
43043;DHT22;28667;50.758;6.096;2022-08-19T02:47:36;15.70;99.90
43043;DHT22;28667;50.758;6.096;2022-08-19T02:50:08;15.70;99.90
43043;DHT22;28667;50.758;6.096;2022-08-19T02:52:40;15.70;99.90
43043;DHT22;28667;50.758;6.096;2022-08-19T02:55:09;15.70;99.90
43043;DHT22;28667;50.758;6.096;2022-08-19T02:58:01;15.60;99.90
43043;DHT22;28667;50.758;6.096;2022-08-19T03:00:44;15.60;99.90
43043;DHT22;28667;50.758;6.096;2022-08-19T03:03:15;15.60;99.90
43043;DHT22;28667;50.758;6.096;2022-08-19T03:06:21;15.60;99.90
43043;DHT22;28667;50.758;6.096;2022-08-19T03:09:05;15.60;99.90
43043;DHT22;28667;50.758;6.096;2022-08-19T03:11:45;15.60;99.90
43043;DHT22;28667;50.758;6.096;2022-08-19T03:14:35;15.60;99.90
43043;DHT22;28667;50.758;6.096;2022-08-19T03:17:09;15.60;99.90
43043;DHT22;28667;50.758;6.096;2022-08-19T03:19:38;15.60;99.90
43043;DHT22;28667;50.758;6.096;2022-08-19T03:22:41;15.60;99.90
43043;DHT22;28667;50.758;6.096;2022-08-19T03:25:24;15.60;99.90
43043;DHT22;28667;50.758;6.096;2022-08-19T03:28:02;15.60;99.90
43043;DHT22;28667;50.758;6.096;2022-08-19T03:30:31;15.60;99.90
43043;DHT22;28667;50.758;6.096;2022-08-19T03:33:14;15.60;99.90
43043;DHT22;28667;50.758;6.096;2022-08-19T03:35:46;15.60;99.90
43043;DHT22;28667;50.758;6.096;2022-08-19T03:38:27;15.60;99.90
43043;DHT22;28667;50.758;6.096;2022-08-19T03:41:04;15.60;99.90
43043;DHT22;28667;50.758;6.096;2022-08-19T03:43:39;15.70;99.90
43043;DHT22;28667;50.758;6.096;2022-08-19T03:46:18;15.70;99.90
43043;DHT22;28667;50.758;6.096;2022-08-19T03:48:52;15.70;99.90
43043;DHT22;28667;50.758;6.096;2022-08-19T03:51:33;15.80;99.90
43043;DHT22;28667;50.758;6.096;2022-08-19T03:54:16;15.70;99.90
43043;DHT22;28667;50.758;6.096;2022-08-19T03:57:08;15.80;99.90
43043;DHT22;28667;50.758;6.096;2022-08-19T03:59:51;15.80;99.90
43043;DHT22;28667;50.758;6.096;2022-08-19T04:02:22;15.80;99.90
43043;DHT22;28667;50.758;6.096;2022-08-19T04:04:55;15.80;99.90
43043;DHT22;28667;50.758;6.096;2022-08-19T04:07:27;15.80;99.90
43043;DHT22;28667;50.758;6.096;2022-08-19T04:10:00;15.80;99.90
43043;DHT22;28667;50.758;6.096;2022-08-19T04:12:49;15.90;99.90
43043;DHT22;28667;50.758;6.096;2022-08-19T04:15:32;15.90;99.90
43043;DHT22;28667;50.758;6.096;2022-08-19T04:18:08;15.90;99.90
43043;DHT22;28667;50.758;6.096;2022-08-19T04:20:45;15.90;99.90
43043;DHT22;28667;50.758;6.096;2022-08-19T04:23:15;15.90;99.90
43043;DHT22;28667;50.758;6.096;2022-08-19T04:25:45;15.90;99.90
43043;DHT22;28667;50.758;6.096;2022-08-19T04:28:22;16.00;99.90
43043;DHT22;28667;50.758;6.096;2022-08-19T04:30:56;16.00;99.90
43043;DHT22;28667;50.758;6.096;2022-08-19T04:33:25;16.00;99.90
43043;DHT22;28667;50.758;6.096;2022-08-19T04:35:58;16.10;99.90
43043;DHT22;28667;50.758;6.096;2022-08-19T04:38:27;16.00;99.90
43043;DHT22;28667;50.758;6.096;2022-08-19T04:41:03;16.00;99.90
43043;DHT22;28667;50.758;6.096;2022-08-19T04:43:50;16.10;99.90
43043;DHT22;28667;50.758;6.096;2022-08-19T04:46:29;16.10;99.90
43043;DHT22;28667;50.758;6.096;2022-08-19T04:49:10;16.20;99.90
43043;DHT22;28667;50.758;6.096;2022-08-19T04:51:47;16.20;99.90
43043;DHT22;28667;50.758;6.096;2022-08-19T04:54:24;16.20;99.90
43043;DHT22;28667;50.758;6.096;2022-08-19T04:57:02;16.20;99.90
43043;DHT22;28667;50.758;6.096;2022-08-19T04:59:40;16.30;99.90
43043;DHT22;28667;50.758;6.096;2022-08-19T05:02:20;16.30;99.90
43043;DHT22;28667;50.758;6.096;2022-08-19T05:05:03;16.30;99.90
43043;DHT22;28667;50.758;6.096;2022-08-19T05:07:34;16.30;99.90
43043;DHT22;28667;50.758;6.096;2022-08-19T05:10:07;16.40;99.90
43043;DHT22;28667;50.758;6.096;2022-08-19T05:12:35;16.40;99.90
43043;DHT22;28667;50.758;6.096;2022-08-19T05:15:25;16.40;99.90
43043;DHT22;28667;50.758;6.096;2022-08-19T05:17:59;16.40;99.90
43043;DHT22;28667;50.758;6.096;2022-08-19T05:20:46;16.40;99.90
43043;DHT22;28667;50.758;6.096;2022-08-19T05:23:38;16.40;99.90
43043;DHT22;28667;50.758;6.096;2022-08-19T05:26:14;16.40;99.90
43043;DHT22;28667;50.758;6.096;2022-08-19T05:28:44;16.40;99.90
43043;DHT22;28667;50.758;6.096;2022-08-19T05:31:22;16.40;99.90
43043;DHT22;28667;50.758;6.096;2022-08-19T05:34:19;16.40;99.90
43043;DHT22;28667;50.758;6.096;2022-08-19T05:36:49;16.50;99.90
43043;DHT22;28667;50.758;6.096;2022-08-19T05:39:57;16.50;99.90
43043;DHT22;28667;50.758;6.096;2022-08-19T05:42:42;16.50;99.90
43043;DHT22;28667;50.758;6.096;2022-08-19T05:45:11;16.50;99.90
43043;DHT22;28667;50.758;6.096;2022-08-19T05:47:47;16.50;99.90
43043;DHT22;28667;50.758;6.096;2022-08-19T05:50:35;16.50;99.90
43043;DHT22;28667;50.758;6.096;2022-08-19T05:53:02;16.50;99.90
43043;DHT22;28667;50.758;6.096;2022-08-19T05:55:36;16.50;99.90
43043;DHT22;28667;50.758;6.096;2022-08-19T05:58:07;16.50;99.90
43043;DHT22;28667;50.758;6.096;2022-08-19T06:00:36;16.50;99.90
43043;DHT22;28667;50.758;6.096;2022-08-19T06:03:02;16.50;99.90
43043;DHT22;28667;50.758;6.096;2022-08-19T06:05:32;16.50;99.90
43043;DHT22;28667;50.758;6.096;2022-08-19T06:07:59;16.50;99.90
43043;DHT22;28667;50.758;6.096;2022-08-19T06:10:25;16.50;99.90
43043;DHT22;28667;50.758;6.096;2022-08-19T06:12:53;16.50;99.90
43043;DHT22;28667;50.758;6.096;2022-08-19T06:15:19;16.50;99.90
43043;DHT22;28667;50.758;6.096;2022-08-19T06:17:45;16.50;99.90
43043;DHT22;28667;50.758;6.096;2022-08-19T06:20:13;16.60;99.90
43043;DHT22;28667;50.758;6.096;2022-08-19T06:22:45;16.60;99.90
43043;DHT22;28667;50.758;6.096;2022-08-19T06:25:13;16.60;99.90
43043;DHT22;28667;50.758;6.096;2022-08-19T06:27:40;16.70;99.90
43043;DHT22;28667;50.758;6.096;2022-08-19T06:30:07;16.70;99.90
43043;DHT22;28667;50.758;6.096;2022-08-19T06:32:33;16.70;99.90
43043;DHT22;28667;50.758;6.096;2022-08-19T06:34:59;16.80;99.90
43043;DHT22;28667;50.758;6.096;2022-08-19T06:37:25;16.90;99.90
43043;DHT22;28667;50.758;6.096;2022-08-19T06:39:51;17.00;99.90
43043;DHT22;28667;50.758;6.096;2022-08-19T06:42:17;17.00;99.90
43043;DHT22;28667;50.758;6.096;2022-08-19T06:44:46;17.10;99.90
43043;DHT22;28667;50.758;6.096;2022-08-19T06:47:20;17.20;99.90
43043;DHT22;28667;50.758;6.096;2022-08-19T06:49:46;17.30;99.90
43043;DHT22;28667;50.758;6.096;2022-08-19T06:52:13;17.40;99.90
43043;DHT22;28667;50.758;6.096;2022-08-19T06:54:41;17.50;99.90
43043;DHT22;28667;50.758;6.096;2022-08-19T06:57:08;17.60;99.90
43043;DHT22;28667;50.758;6.096;2022-08-19T06:59:39;17.80;99.90
43043;DHT22;28667;50.758;6.096;2022-08-19T07:02:06;18.00;99.90
43043;DHT22;28667;50.758;6.096;2022-08-19T07:04:34;18.20;99.90
43043;DHT22;28667;50.758;6.096;2022-08-19T07:07:07;18.30;99.90
43043;DHT22;28667;50.758;6.096;2022-08-19T07:09:38;18.40;99.90
43043;DHT22;28667;50.758;6.096;2022-08-19T07:12:06;18.60;99.90
43043;DHT22;28667;50.758;6.096;2022-08-19T07:14:33;18.60;99.90
43043;DHT22;28667;50.758;6.096;2022-08-19T07:17:10;18.70;99.90
43043;DHT22;28667;50.758;6.096;2022-08-19T07:19:37;18.70;99.90
43043;DHT22;28667;50.758;6.096;2022-08-19T07:22:05;18.70;99.90
43043;DHT22;28667;50.758;6.096;2022-08-19T07:24:34;18.70;99.90
43043;DHT22;28667;50.758;6.096;2022-08-19T07:27:03;18.80;99.90
43043;DHT22;28667;50.758;6.096;2022-08-19T07:29:32;18.90;99.90
43043;DHT22;28667;50.758;6.096;2022-08-19T07:32:00;19.10;99.90
43043;DHT22;28667;50.758;6.096;2022-08-19T07:34:28;19.30;99.90
43043;DHT22;28667;50.758;6.096;2022-08-19T07:36:55;19.40;99.90
43043;DHT22;28667;50.758;6.096;2022-08-19T07:39:28;19.50;99.90
43043;DHT22;28667;50.758;6.096;2022-08-19T07:41:56;19.60;99.90
43043;DHT22;28667;50.758;6.096;2022-08-19T07:44:22;19.70;99.90
43043;DHT22;28667;50.758;6.096;2022-08-19T07:46:53;19.80;99.90
43043;DHT22;28667;50.758;6.096;2022-08-19T07:49:20;19.90;99.90
43043;DHT22;28667;50.758;6.096;2022-08-19T07:51:52;19.90;99.90
43043;DHT22;28667;50.758;6.096;2022-08-19T07:54:19;20.00;99.90
43043;DHT22;28667;50.758;6.096;2022-08-19T07:56:46;20.20;99.90
43043;DHT22;28667;50.758;6.096;2022-08-19T07:59:12;20.30;99.90
43043;DHT22;28667;50.758;6.096;2022-08-19T08:01:39;20.20;99.90
43043;DHT22;28667;50.758;6.096;2022-08-19T08:04:06;20.30;99.90
43043;DHT22;28667;50.758;6.096;2022-08-19T08:06:52;20.40;99.90
43043;DHT22;28667;50.758;6.096;2022-08-19T08:09:39;20.40;99.90
43043;DHT22;28667;50.758;6.096;2022-08-19T08:12:09;20.40;99.90
43043;DHT22;28667;50.758;6.096;2022-08-19T08:14:39;20.40;99.90
43043;DHT22;28667;50.758;6.096;2022-08-19T08:17:08;20.40;99.90
43043;DHT22;28667;50.758;6.096;2022-08-19T08:19:55;20.40;99.90
43043;DHT22;28667;50.758;6.096;2022-08-19T08:22:22;20.40;99.90
43043;DHT22;28667;50.758;6.096;2022-08-19T08:27:40;20.40;99.90
43043;DHT22;28667;50.758;6.096;2022-08-19T08:30:09;20.50;99.90
43043;DHT22;28667;50.758;6.096;2022-08-19T08:32:37;20.50;99.90
43043;DHT22;28667;50.758;6.096;2022-08-19T08:35:06;20.50;99.90
43043;DHT22;28667;50.758;6.096;2022-08-19T08:37:32;20.60;99.90
43043;DHT22;28667;50.758;6.096;2022-08-19T08:39:58;20.60;99.90
43043;DHT22;28667;50.758;6.096;2022-08-19T08:42:34;20.60;99.90
43043;DHT22;28667;50.758;6.096;2022-08-19T08:45:06;20.60;99.90
43043;DHT22;28667;50.758;6.096;2022-08-19T08:47:40;20.60;99.90
43043;DHT22;28667;50.758;6.096;2022-08-19T08:50:24;20.50;99.90
43043;DHT22;28667;50.758;6.096;2022-08-19T08:52:53;20.50;99.90
43043;DHT22;28667;50.758;6.096;2022-08-19T08:55:28;20.50;99.90
43043;DHT22;28667;50.758;6.096;2022-08-19T08:58:01;20.50;99.90
43043;DHT22;28667;50.758;6.096;2022-08-19T09:00:36;20.50;99.90
43043;DHT22;28667;50.758;6.096;2022-08-19T09:03:06;20.50;99.90
43043;DHT22;28667;50.758;6.096;2022-08-19T09:08:15;20.60;99.90
43043;DHT22;28667;50.758;6.096;2022-08-19T09:10:55;20.50;99.90
43043;DHT22;28667;50.758;6.096;2022-08-19T09:16:06;20.40;99.90
43043;DHT22;28667;50.758;6.096;2022-08-19T09:18:40;20.30;99.90
43043;DHT22;28667;50.758;6.096;2022-08-19T09:21:07;20.20;99.90
43043;DHT22;28667;50.758;6.096;2022-08-19T09:23:36;20.10;99.90
43043;DHT22;28667;50.758;6.096;2022-08-19T09:26:07;20.10;99.90
43043;DHT22;28667;50.758;6.096;2022-08-19T09:28:33;20.10;99.90
43043;DHT22;28667;50.758;6.096;2022-08-19T09:30:59;20.10;99.90
43043;DHT22;28667;50.758;6.096;2022-08-19T09:33:26;20.10;99.90
43043;DHT22;28667;50.758;6.096;2022-08-19T09:36:05;20.30;99.90
43043;DHT22;28667;50.758;6.096;2022-08-19T09:38:33;20.20;99.90
43043;DHT22;28667;50.758;6.096;2022-08-19T09:41:09;20.40;99.90
43043;DHT22;28667;50.758;6.096;2022-08-19T09:43:37;20.40;99.90
43043;DHT22;28667;50.758;6.096;2022-08-19T09:46:05;20.50;99.90
43043;DHT22;28667;50.758;6.096;2022-08-19T09:48:33;20.60;99.90
43043;DHT22;28667;50.758;6.096;2022-08-19T09:51:07;20.70;99.90
43043;DHT22;28667;50.758;6.096;2022-08-19T09:53:34;20.80;99.90
43043;DHT22;28667;50.758;6.096;2022-08-19T09:56:02;21.00;99.90
43043;DHT22;28667;50.758;6.096;2022-08-19T09:58:28;21.20;99.90
43043;DHT22;28667;50.758;6.096;2022-08-19T10:00:57;21.40;99.90
43043;DHT22;28667;50.758;6.096;2022-08-19T10:03:25;21.70;99.90
43043;DHT22;28667;50.758;6.096;2022-08-19T10:05:51;22.00;99.90
43043;DHT22;28667;50.758;6.096;2022-08-19T10:08:21;22.10;99.90
43043;DHT22;28667;50.758;6.096;2022-08-19T10:10:49;22.30;99.90
43043;DHT22;28667;50.758;6.096;2022-08-19T10:13:19;22.50;99.90
43043;DHT22;28667;50.758;6.096;2022-08-19T10:15:48;22.70;99.90
43043;DHT22;28667;50.758;6.096;2022-08-19T10:18:17;22.90;99.90
43043;DHT22;28667;50.758;6.096;2022-08-19T10:20:45;23.10;99.50
43043;DHT22;28667;50.758;6.096;2022-08-19T10:23:12;23.20;99.20
43043;DHT22;28667;50.758;6.096;2022-08-19T10:25:38;23.20;98.80
43043;DHT22;28667;50.758;6.096;2022-08-19T10:28:04;23.10;99.20
43043;DHT22;28667;50.758;6.096;2022-08-19T10:30:32;23.10;98.50
43043;DHT22;28667;50.758;6.096;2022-08-19T10:33:00;23.00;98.90
43043;DHT22;28667;50.758;6.096;2022-08-19T10:35:26;22.90;98.90
43043;DHT22;28667;50.758;6.096;2022-08-19T10:37:56;22.90;99.00
43043;DHT22;28667;50.758;6.096;2022-08-19T10:40:26;23.00;98.10
43043;DHT22;28667;50.758;6.096;2022-08-19T10:42:53;23.10;97.80
43043;DHT22;28667;50.758;6.096;2022-08-19T10:45:20;23.30;97.80
43043;DHT22;28667;50.758;6.096;2022-08-19T10:47:52;23.50;97.90
43043;DHT22;28667;50.758;6.096;2022-08-19T10:50:19;23.70;96.40
43043;DHT22;28667;50.758;6.096;2022-08-19T10:53:06;23.70;96.70
43043;DHT22;28667;50.758;6.096;2022-08-19T10:55:34;23.80;96.20
43043;DHT22;28667;50.758;6.096;2022-08-19T10:58:21;23.80;96.10
43043;DHT22;28667;50.758;6.096;2022-08-19T11:00:56;23.80;96.30
43043;DHT22;28667;50.758;6.096;2022-08-19T11:03:24;23.70;96.60
43043;DHT22;28667;50.758;6.096;2022-08-19T11:06:09;23.70;96.30
43043;DHT22;28667;50.758;6.096;2022-08-19T11:08:36;23.60;96.50
43043;DHT22;28667;50.758;6.096;2022-08-19T11:11:04;23.50;96.90
43043;DHT22;28667;50.758;6.096;2022-08-19T11:13:32;23.50;97.40
43043;DHT22;28667;50.758;6.096;2022-08-19T11:16:17;23.50;97.20
43043;DHT22;28667;50.758;6.096;2022-08-19T11:18:46;23.50;97.30
43043;DHT22;28667;50.758;6.096;2022-08-19T11:21:15;23.50;97.30
43043;DHT22;28667;50.758;6.096;2022-08-19T11:23:43;23.50;97.20
43043;DHT22;28667;50.758;6.096;2022-08-19T11:26:10;23.50;96.70
43043;DHT22;28667;50.758;6.096;2022-08-19T11:28:36;23.60;96.50
43043;DHT22;28667;50.758;6.096;2022-08-19T11:31:03;23.60;96.80
43043;DHT22;28667;50.758;6.096;2022-08-19T11:33:30;23.60;96.90
43043;DHT22;28667;50.758;6.096;2022-08-19T11:35:58;23.50;97.10
43043;DHT22;28667;50.758;6.096;2022-08-19T11:38:26;23.50;97.00
43043;DHT22;28667;50.758;6.096;2022-08-19T11:40:57;23.50;96.70
43043;DHT22;28667;50.758;6.096;2022-08-19T11:43:23;23.50;96.70
43043;DHT22;28667;50.758;6.096;2022-08-19T11:45:50;23.50;96.90
43043;DHT22;28667;50.758;6.096;2022-08-19T11:48:17;23.50;96.90
43043;DHT22;28667;50.758;6.096;2022-08-19T11:50:49;23.60;97.20
43043;DHT22;28667;50.758;6.096;2022-08-19T11:53:16;23.60;97.40
43043;DHT22;28667;50.758;6.096;2022-08-19T11:55:44;23.60;96.40
43043;DHT22;28667;50.758;6.096;2022-08-19T11:58:12;23.60;96.50
43043;DHT22;28667;50.758;6.096;2022-08-19T12:00:39;23.50;96.70
43043;DHT22;28667;50.758;6.096;2022-08-19T12:03:06;23.60;96.40
43043;DHT22;28667;50.758;6.096;2022-08-19T12:05:32;23.70;96.30
43043;DHT22;28667;50.758;6.096;2022-08-19T12:07:59;23.70;96.40
43043;DHT22;28667;50.758;6.096;2022-08-19T12:10:25;23.80;96.30
43043;DHT22;28667;50.758;6.096;2022-08-19T12:12:51;23.80;96.20
43043;DHT22;28667;50.758;6.096;2022-08-19T12:15:17;23.80;95.60
43043;DHT22;28667;50.758;6.096;2022-08-19T12:17:47;23.70;95.40
43043;DHT22;28667;50.758;6.096;2022-08-19T12:20:13;23.70;95.80
43043;DHT22;28667;50.758;6.096;2022-08-19T12:22:41;23.70;95.90
43043;DHT22;28667;50.758;6.096;2022-08-19T12:25:10;23.80;95.10
43043;DHT22;28667;50.758;6.096;2022-08-19T12:27:37;23.80;95.00
43043;DHT22;28667;50.758;6.096;2022-08-19T12:30:04;23.80;95.20
43043;DHT22;28667;50.758;6.096;2022-08-19T12:32:31;23.80;94.70
43043;DHT22;28667;50.758;6.096;2022-08-19T12:34:57;23.90;94.90
43043;DHT22;28667;50.758;6.096;2022-08-19T12:37:23;23.90;94.50
43043;DHT22;28667;50.758;6.096;2022-08-19T12:39:49;23.90;94.70
43043;DHT22;28667;50.758;6.096;2022-08-19T12:42:15;23.90;93.30
43043;DHT22;28667;50.758;6.096;2022-08-19T12:44:42;24.00;93.70
43043;DHT22;28667;50.758;6.096;2022-08-19T12:47:09;24.10;93.90
43043;DHT22;28667;50.758;6.096;2022-08-19T12:49:36;24.10;93.60
43043;DHT22;28667;50.758;6.096;2022-08-19T12:52:07;24.20;93.80
43043;DHT22;28667;50.758;6.096;2022-08-19T12:54:35;24.20;93.70
43043;DHT22;28667;50.758;6.096;2022-08-19T12:57:06;24.20;93.90
43043;DHT22;28667;50.758;6.096;2022-08-19T12:59:34;24.30;93.80
43043;DHT22;28667;50.758;6.096;2022-08-19T13:02:06;24.40;93.80
43043;DHT22;28667;50.758;6.096;2022-08-19T13:04:34;24.60;93.90
43043;DHT22;28667;50.758;6.096;2022-08-19T13:07:03;24.80;93.40
43043;DHT22;28667;50.758;6.096;2022-08-19T13:09:30;24.90;93.70
43043;DHT22;28667;50.758;6.096;2022-08-19T13:11:56;25.00;93.20
43043;DHT22;28667;50.758;6.096;2022-08-19T13:14:22;25.20;93.10
43043;DHT22;28667;50.758;6.096;2022-08-19T13:16:48;25.20;92.80
43043;DHT22;28667;50.758;6.096;2022-08-19T13:19:14;25.30;92.60
43043;DHT22;28667;50.758;6.096;2022-08-19T13:21:41;25.20;92.90
43043;DHT22;28667;50.758;6.096;2022-08-19T13:24:07;25.20;92.80
43043;DHT22;28667;50.758;6.096;2022-08-19T13:26:33;25.30;92.80
43043;DHT22;28667;50.758;6.096;2022-08-19T13:28:59;25.50;92.40
43043;DHT22;28667;50.758;6.096;2022-08-19T13:31:44;25.60;92.40
43043;DHT22;28667;50.758;6.096;2022-08-19T13:34:34;25.80;92.40
43043;DHT22;28667;50.758;6.096;2022-08-19T13:37:02;25.80;92.40
43043;DHT22;28667;50.758;6.096;2022-08-19T13:39:32;25.90;92.10
43043;DHT22;28667;50.758;6.096;2022-08-19T13:42:00;25.80;92.00
43043;DHT22;28667;50.758;6.096;2022-08-19T13:44:27;25.80;92.10
43043;DHT22;28667;50.758;6.096;2022-08-19T13:47:02;25.80;92.50
43043;DHT22;28667;50.758;6.096;2022-08-19T13:49:35;25.80;92.10
43043;DHT22;28667;50.758;6.096;2022-08-19T13:52:03;25.80;92.60
43043;DHT22;28667;50.758;6.096;2022-08-19T13:54:29;25.90;92.60
43043;DHT22;28667;50.758;6.096;2022-08-19T13:56:55;25.90;91.80
43043;DHT22;28667;50.758;6.096;2022-08-19T13:59:22;25.90;92.10
43043;DHT22;28667;50.758;6.096;2022-08-19T14:01:50;25.80;92.40
43043;DHT22;28667;50.758;6.096;2022-08-19T14:04:17;25.70;92.30
43043;DHT22;28667;50.758;6.096;2022-08-19T14:06:43;25.70;92.30
43043;DHT22;28667;50.758;6.096;2022-08-19T14:09:11;25.70;92.40
43043;DHT22;28667;50.758;6.096;2022-08-19T14:11:37;25.70;92.70
43043;DHT22;28667;50.758;6.096;2022-08-19T14:14:04;25.70;92.60
43043;DHT22;28667;50.758;6.096;2022-08-19T14:16:30;25.80;92.50
43043;DHT22;28667;50.758;6.096;2022-08-19T14:18:56;25.70;92.60
43043;DHT22;28667;50.758;6.096;2022-08-19T14:21:23;25.70;92.30
43043;DHT22;28667;50.758;6.096;2022-08-19T14:23:51;25.80;92.40
43043;DHT22;28667;50.758;6.096;2022-08-19T14:26:18;25.80;92.40
43043;DHT22;28667;50.758;6.096;2022-08-19T14:28:45;25.70;92.50
43043;DHT22;28667;50.758;6.096;2022-08-19T14:31:13;25.60;92.60
43043;DHT22;28667;50.758;6.096;2022-08-19T14:33:42;25.50;92.80
43043;DHT22;28667;50.758;6.096;2022-08-19T14:36:12;25.40;93.10
43043;DHT22;28667;50.758;6.096;2022-08-19T14:38:39;25.40;93.40
43043;DHT22;28667;50.758;6.096;2022-08-19T14:41:20;25.20;93.90
43043;DHT22;28667;50.758;6.096;2022-08-19T14:43:49;25.00;94.30
43043;DHT22;28667;50.758;6.096;2022-08-19T14:46:17;24.80;94.80
43043;DHT22;28667;50.758;6.096;2022-08-19T14:48:45;24.70;95.30
43043;DHT22;28667;50.758;6.096;2022-08-19T14:51:16;24.60;95.60
43043;DHT22;28667;50.758;6.096;2022-08-19T14:53:43;24.60;95.90
43043;DHT22;28667;50.758;6.096;2022-08-19T14:56:12;24.60;95.90
43043;DHT22;28667;50.758;6.096;2022-08-19T14:58:40;24.60;96.10
43043;DHT22;28667;50.758;6.096;2022-08-19T15:01:07;24.50;96.20
43043;DHT22;28667;50.758;6.096;2022-08-19T15:03:33;24.50;96.40
43043;DHT22;28667;50.758;6.096;2022-08-19T15:06:01;24.50;96.30
43043;DHT22;28667;50.758;6.096;2022-08-19T15:08:30;24.60;96.40
43043;DHT22;28667;50.758;6.096;2022-08-19T15:10:57;24.60;96.40
43043;DHT22;28667;50.758;6.096;2022-08-19T15:13:24;24.80;96.30
43043;DHT22;28667;50.758;6.096;2022-08-19T15:15:50;24.80;96.10
43043;DHT22;28667;50.758;6.096;2022-08-19T15:18:17;24.90;95.90
43043;DHT22;28667;50.758;6.096;2022-08-19T15:20:54;25.00;96.00
43043;DHT22;28667;50.758;6.096;2022-08-19T15:23:21;25.10;96.00
43043;DHT22;28667;50.758;6.096;2022-08-19T15:25:47;25.20;95.60
43043;DHT22;28667;50.758;6.096;2022-08-19T15:28:17;25.20;95.60
43043;DHT22;28667;50.758;6.096;2022-08-19T15:31:24;25.20;95.80
43043;DHT22;28667;50.758;6.096;2022-08-19T15:33:53;25.20;96.00
43043;DHT22;28667;50.758;6.096;2022-08-19T15:36:25;25.20;95.90
43043;DHT22;28667;50.758;6.096;2022-08-19T15:38:55;25.20;96.00
43043;DHT22;28667;50.758;6.096;2022-08-19T15:41:30;25.00;96.10
43043;DHT22;28667;50.758;6.096;2022-08-19T15:44:00;25.00;96.00
43043;DHT22;28667;50.758;6.096;2022-08-19T15:46:28;25.00;96.00
43043;DHT22;28667;50.758;6.096;2022-08-19T15:48:56;25.00;95.70
43043;DHT22;28667;50.758;6.096;2022-08-19T15:51:22;25.10;95.60
43043;DHT22;28667;50.758;6.096;2022-08-19T15:53:49;25.20;95.50
43043;DHT22;28667;50.758;6.096;2022-08-19T15:56:16;25.30;95.40
43043;DHT22;28667;50.758;6.096;2022-08-19T15:58:42;25.40;95.20
43043;DHT22;28667;50.758;6.096;2022-08-19T16:01:27;25.60;95.20
43043;DHT22;28667;50.758;6.096;2022-08-19T16:04:13;25.80;94.90
43043;DHT22;28667;50.758;6.096;2022-08-19T16:06:59;26.20;94.30
43043;DHT22;28667;50.758;6.096;2022-08-19T16:09:30;26.30;94.20
43043;DHT22;28667;50.758;6.096;2022-08-19T16:11:58;26.20;94.20
43043;DHT22;28667;50.758;6.096;2022-08-19T16:14:27;26.20;93.90
43043;DHT22;28667;50.758;6.096;2022-08-19T16:16:53;26.10;94.30